createdAt,value
2017-04-30T00:00:19.011Z,0
2017-04-30T00:01:31.551Z,0
2017-04-30T00:02:44.070Z,0
2017-04-30T00:03:56.593Z,0
2017-04-30T00:05:09.114Z,0
2017-04-30T00:06:21.657Z,0
2017-04-30T00:07:34.180Z,0
2017-04-30T00:08:46.698Z,0
2017-04-30T00:09:59.252Z,0
2017-04-30T00:11:11.817Z,0
2017-04-30T00:12:24.053Z,0
2017-04-30T00:13:35.981Z,0
2017-04-30T00:14:48.202Z,0
2017-04-30T00:16:00.729Z,0
2017-04-30T00:17:13.249Z,0
2017-04-30T00:18:25.769Z,0
2017-04-30T00:19:38.329Z,0
2017-04-30T00:20:50.849Z,0
2017-04-30T00:22:03.356Z,0
2017-04-30T00:23:15.602Z,0
2017-04-30T00:24:27.871Z,0
2017-04-30T00:25:40.394Z,0
2017-04-30T00:26:52.913Z,0
2017-04-30T00:28:05.413Z,0
2017-04-30T00:29:17.353Z,0
2017-04-30T00:30:29.874Z,0
2017-04-30T00:31:42.398Z,0
2017-04-30T00:32:54.941Z,0
2017-04-30T00:34:07.467Z,0
2017-04-30T00:35:19.087Z,0
2017-04-30T00:36:31.621Z,0
2017-04-30T00:37:44.131Z,0
2017-04-30T00:38:56.666Z,0
2017-04-30T00:40:09.219Z,0
2017-04-30T00:41:21.141Z,0
2017-04-30T00:42:33.363Z,0
2017-04-30T00:43:45.883Z,0
2017-04-30T00:44:58.401Z,0
2017-04-30T00:46:10.896Z,0
2017-04-30T00:47:23.096Z,0
2017-04-30T00:48:35.319Z,0
2017-04-30T00:49:47.538Z,0
2017-04-30T00:51:00.084Z,0
2017-04-30T00:52:12.630Z,0
2017-04-30T00:53:25.149Z,0
2017-04-30T00:54:37.689Z,0
2017-04-30T00:55:50.207Z,0
2017-04-30T00:57:02.710Z,0
2017-04-30T00:58:15.247Z,0
2017-04-30T00:59:27.769Z,0
2017-04-30T01:00:40.297Z,0
2017-04-30T01:01:52.823Z,0
2017-04-30T01:03:05.331Z,0
2017-04-30T01:04:17.264Z,0
2017-04-30T01:05:29.787Z,0
2017-04-30T01:06:42.580Z,0
2017-04-30T01:07:55.103Z,0
2017-04-30T01:09:07.639Z,0
2017-04-30T01:10:20.145Z,0
2017-04-30T01:11:32.667Z,0
2017-04-30T01:12:45.181Z,0
2017-04-30T01:13:57.405Z,0
2017-04-30T01:15:09.898Z,0
2017-04-30T01:16:22.394Z,0
2017-04-30T01:17:34.937Z,0
2017-04-30T01:18:47.469Z,0
2017-04-30T01:19:59.999Z,0
2017-04-30T01:21:12.223Z,0
2017-04-30T01:22:24.769Z,0
2017-04-30T01:23:37.572Z,0
2017-04-30T01:24:50.069Z,0
2017-04-30T01:26:02.595Z,0
2017-04-30T01:27:15.133Z,0
2017-04-30T01:28:27.656Z,0
2017-04-30T01:29:39.921Z,0
2017-04-30T01:30:52.486Z,0
2017-04-30T01:32:04.996Z,0
2017-04-30T01:33:17.537Z,0
2017-04-30T01:34:29.736Z,0
2017-04-30T01:35:42.262Z,0
2017-04-30T01:36:54.778Z,0
2017-04-30T01:38:07.325Z,0
2017-04-30T01:39:19.816Z,0
2017-04-30T01:40:32.358Z,0
2017-04-30T01:41:44.886Z,0
2017-04-30T01:42:57.404Z,0
2017-04-30T01:44:09.630Z,0
2017-04-30T01:45:22.165Z,0
2017-04-30T01:46:34.394Z,0
2017-04-30T01:47:46.912Z,0
2017-04-30T01:48:58.887Z,0
2017-04-30T01:50:11.409Z,0
2017-04-30T01:51:23.626Z,0
2017-04-30T01:52:36.125Z,0
2017-04-30T01:53:48.685Z,0
2017-04-30T01:55:01.217Z,0
2017-04-30T01:56:13.739Z,0
2017-04-30T01:57:25.961Z,0
2017-04-30T01:58:38.501Z,0
2017-04-30T01:59:50.997Z,0
2017-04-30T02:01:03.513Z,0
2017-04-30T02:02:15.734Z,0
2017-04-30T02:03:27.985Z,0
2017-04-30T02:04:40.508Z,0
2017-04-30T02:05:53.005Z,0
2017-04-30T02:07:05.554Z,0
2017-04-30T02:08:17.494Z,0
2017-04-30T02:09:30.039Z,0
2017-04-30T02:10:42.565Z,0
2017-04-30T02:11:55.348Z,0
2017-04-30T02:13:07.855Z,0
2017-04-30T02:14:20.075Z,0
2017-04-30T02:15:32.569Z,0
2017-04-30T02:16:45.111Z,0
2017-04-30T02:17:57.642Z,0
2017-04-30T02:19:10.159Z,0
2017-04-30T02:20:22.702Z,0
2017-04-30T02:21:35.205Z,0
2017-04-30T02:22:47.722Z,0
2017-04-30T02:24:00.257Z,0
2017-04-30T02:25:12.472Z,0
2017-04-30T02:26:24.960Z,0
2017-04-30T02:27:37.507Z,0
2017-04-30T02:28:49.752Z,0
2017-04-30T02:30:02.287Z,0
2017-04-30T02:31:14.190Z,0
2017-04-30T02:32:26.688Z,0
2017-04-30T02:33:38.904Z,0
2017-04-30T02:34:51.435Z,0
2017-04-30T02:36:03.977Z,0
2017-04-30T02:37:15.600Z,0
2017-04-30T02:38:28.108Z,0
2017-04-30T02:39:40.637Z,0
2017-04-30T02:40:53.134Z,0
2017-04-30T02:42:05.651Z,0
2017-04-30T02:43:17.853Z,0
2017-04-30T02:44:30.398Z,0
2017-04-30T02:45:42.943Z,0
2017-04-30T02:46:55.454Z,0
2017-04-30T02:48:07.988Z,0
2017-04-30T02:49:19.609Z,0
2017-04-30T02:50:32.128Z,0
2017-04-30T02:51:44.685Z,0
2017-04-30T02:52:57.214Z,0
2017-04-30T02:54:09.439Z,0
2017-04-30T02:55:21.662Z,0
2017-04-30T02:56:34.184Z,0
2017-04-30T02:57:46.705Z,4
2017-04-30T02:58:58.980Z,4
2017-04-30T03:00:11.510Z,0
2017-04-30T03:01:24.017Z,0
2017-04-30T03:02:36.255Z,4
2017-04-30T03:03:48.800Z,4
2017-04-30T03:05:01.331Z,4
2017-04-30T03:06:13.797Z,4
2017-04-30T03:07:26.346Z,4
2017-04-30T03:08:38.876Z,8
2017-04-30T03:09:51.112Z,8
2017-04-30T03:11:03.649Z,12
2017-04-30T03:12:16.187Z,12
2017-04-30T03:13:28.728Z,16
2017-04-30T03:14:41.271Z,20
2017-04-30T03:15:53.782Z,24
2017-04-30T03:17:06.014Z,28
2017-04-30T03:18:18.577Z,32
2017-04-30T03:19:31.102Z,40
2017-04-30T03:20:43.323Z,48
2017-04-30T03:21:55.850Z,52
2017-04-30T03:23:08.345Z,64
2017-04-30T03:24:20.294Z,76
2017-04-30T03:25:32.856Z,88
2017-04-30T03:26:45.381Z,96
2017-04-30T03:27:57.602Z,112
2017-04-30T03:29:10.147Z,128
2017-04-30T03:30:22.691Z,144
2017-04-30T03:31:35.189Z,168
2017-04-30T03:32:47.753Z,184
2017-04-30T03:34:00.548Z,208
2017-04-30T03:35:13.099Z,236
2017-04-30T03:36:25.595Z,260
2017-04-30T03:37:38.115Z,288
2017-04-30T03:38:50.639Z,320
2017-04-30T03:40:03.186Z,348
2017-04-30T03:41:14.823Z,384
2017-04-30T03:42:27.369Z,420
2017-04-30T03:43:39.896Z,456
2017-04-30T03:44:52.112Z,496
2017-04-30T03:46:04.646Z,540
2017-04-30T03:47:17.195Z,580
2017-04-30T03:48:29.404Z,624
2017-04-30T03:49:42.274Z,672
2017-04-30T03:50:54.820Z,716
2017-04-30T03:52:07.334Z,768
2017-04-30T03:53:19.266Z,820
2017-04-30T03:54:31.808Z,872
2017-04-30T03:55:44.029Z,924
2017-04-30T03:56:56.534Z,980
2017-04-30T03:58:09.099Z,1032
2017-04-30T03:59:21.363Z,1088
2017-04-30T04:00:34.206Z,1144
2017-04-30T04:01:46.409Z,1192
2017-04-30T04:02:58.334Z,1256
2017-04-30T04:04:10.878Z,1308
2017-04-30T04:05:22.813Z,1368
2017-04-30T04:06:35.367Z,1424
2017-04-30T04:07:47.884Z,1480
2017-04-30T04:09:00.412Z,1536
2017-04-30T04:10:12.639Z,1596
2017-04-30T04:11:25.421Z,1656
2017-04-30T04:12:37.969Z,1712
2017-04-30T04:13:50.246Z,1772
2017-04-30T04:15:02.794Z,1828
2017-04-30T04:16:14.990Z,1884
2017-04-30T04:17:26.908Z,1936
2017-04-30T04:18:39.169Z,2020
2017-04-30T04:19:51.697Z,2100
2017-04-30T04:21:04.239Z,2112
2017-04-30T04:22:17.018Z,2160
2017-04-30T04:23:29.278Z,2216
2017-04-30T04:24:41.806Z,2268
2017-04-30T04:25:54.323Z,2316
2017-04-30T04:27:06.873Z,2368
2017-04-30T04:28:19.076Z,2420
2017-04-30T04:29:31.319Z,2472
2017-04-30T04:30:43.853Z,2524
2017-04-30T04:31:56.373Z,2572
2017-04-30T04:33:09.220Z,2620
2017-04-30T04:34:21.452Z,2680
2017-04-30T04:35:33.662Z,2720
2017-04-30T04:36:46.194Z,2772
2017-04-30T04:37:58.711Z,2820
2017-04-30T04:39:11.499Z,2864
2017-04-30T04:40:24.031Z,2916
2017-04-30T04:41:36.230Z,2992
2017-04-30T04:42:48.448Z,3028
2017-04-30T04:44:00.693Z,3084
2017-04-30T04:45:12.936Z,3116
2017-04-30T04:46:25.432Z,3164
2017-04-30T04:47:37.953Z,3240
2017-04-30T04:48:50.456Z,3284
2017-04-30T04:50:02.995Z,3300
2017-04-30T04:51:14.916Z,3364
2017-04-30T04:52:27.210Z,3404
2017-04-30T04:53:39.735Z,3444
2017-04-30T04:54:51.971Z,3472
2017-04-30T04:56:04.201Z,3492
2017-04-30T04:57:16.414Z,3548
2017-04-30T04:58:28.966Z,3592
2017-04-30T04:59:41.492Z,3652
2017-04-30T05:00:54.029Z,3676
2017-04-30T05:02:06.562Z,3732
2017-04-30T05:03:18.793Z,3756
2017-04-30T05:04:31.314Z,3844
2017-04-30T05:05:44.086Z,3864
2017-04-30T05:06:56.342Z,3996
2017-04-30T05:08:08.600Z,4220
2017-04-30T05:09:21.130Z,4404
2017-04-30T05:10:33.668Z,4220
2017-04-30T05:11:46.200Z,3984
2017-04-30T05:12:58.735Z,3992
2017-04-30T05:14:11.264Z,4008
2017-04-30T05:15:23.764Z,4060
2017-04-30T05:16:36.280Z,4088
2017-04-30T05:17:48.497Z,4140
2017-04-30T05:19:01.014Z,4184
2017-04-30T05:20:13.243Z,4228
2017-04-30T05:21:25.464Z,4284
2017-04-30T05:22:37.978Z,4312
2017-04-30T05:23:50.486Z,4336
2017-04-30T05:25:02.980Z,4396
2017-04-30T05:26:15.197Z,4420
2017-04-30T05:27:27.714Z,4480
2017-04-30T05:28:40.236Z,4444
2017-04-30T05:29:52.757Z,4508
2017-04-30T05:31:05.302Z,4520
2017-04-30T05:32:17.531Z,4680
2017-04-30T05:33:30.077Z,4684
2017-04-30T05:34:42.620Z,4640
2017-04-30T05:35:54.862Z,4724
2017-04-30T05:37:07.390Z,4752
2017-04-30T05:38:19.874Z,4792
2017-04-30T05:39:32.399Z,4904
2017-04-30T05:40:44.602Z,4848
2017-04-30T05:41:57.125Z,4832
2017-04-30T05:43:09.657Z,4872
2017-04-30T05:44:21.886Z,4912
2017-04-30T05:45:34.099Z,4888
2017-04-30T05:46:46.631Z,4988
2017-04-30T05:47:59.182Z,4956
2017-04-30T05:49:11.698Z,5028
2017-04-30T05:50:23.916Z,5064
2017-04-30T05:51:36.443Z,5432
2017-04-30T05:52:48.679Z,7752
2017-04-30T05:54:01.207Z,8876
2017-04-30T05:55:13.705Z,6488
2017-04-30T05:56:25.921Z,5584
2017-04-30T05:57:38.422Z,5584
2017-04-30T05:58:50.668Z,5552
2017-04-30T06:00:03.483Z,6772
2017-04-30T06:01:16.006Z,5952
2017-04-30T06:02:28.525Z,5788
2017-04-30T06:03:40.742Z,5848
2017-04-30T06:04:53.262Z,5596
2017-04-30T06:06:05.792Z,5736
2017-04-30T06:07:17.737Z,5608
2017-04-30T06:08:30.284Z,7276
2017-04-30T06:09:42.851Z,7796
2017-04-30T06:10:55.047Z,6688
2017-04-30T06:12:07.271Z,8988
2017-04-30T06:13:19.792Z,8488
2017-04-30T06:14:32.330Z,7044
2017-04-30T06:15:44.833Z,6380
2017-04-30T06:16:57.377Z,9304
2017-04-30T06:18:09.897Z,12880
2017-04-30T06:19:22.136Z,15804
2017-04-30T06:20:34.092Z,35424
2017-04-30T06:21:46.865Z,44928
2017-04-30T06:22:59.377Z,46368
2017-04-30T06:24:11.903Z,48352
2017-04-30T06:25:24.451Z,50688
2017-04-30T06:26:37.047Z,50624
2017-04-30T06:27:49.610Z,47840
2017-04-30T06:29:02.160Z,44000
2017-04-30T06:30:14.409Z,40704
2017-04-30T06:31:26.952Z,37248
2017-04-30T06:32:38.893Z,35936
2017-04-30T06:33:51.461Z,29728
2017-04-30T06:35:03.669Z,27392
2017-04-30T06:36:16.204Z,24256
2017-04-30T06:37:28.435Z,23456
2017-04-30T06:38:40.994Z,24544
2017-04-30T06:39:53.523Z,24768
2017-04-30T06:41:06.055Z,26464
2017-04-30T06:42:18.296Z,31072
2017-04-30T06:43:31.106Z,36896
2017-04-30T06:44:43.636Z,39808
2017-04-30T06:45:56.156Z,42080
2017-04-30T06:47:08.690Z,43520
2017-04-30T06:48:21.240Z,46304
2017-04-30T06:49:33.447Z,47360
2017-04-30T06:50:45.991Z,48576
2017-04-30T06:51:58.225Z,52128
2017-04-30T06:53:10.449Z,51168
2017-04-30T06:54:22.980Z,51616
2017-04-30T06:55:35.524Z,50912
2017-04-30T06:56:48.091Z,52928
2017-04-30T06:58:00.366Z,51936
2017-04-30T06:59:12.607Z,51008
2017-04-30T07:00:24.861Z,50368
2017-04-30T07:01:37.425Z,50496
2017-04-30T07:02:49.971Z,52096
2017-04-30T07:04:02.472Z,52512
2017-04-30T07:05:15.308Z,54656
2017-04-30T07:06:27.858Z,56480
2017-04-30T07:07:40.104Z,57088
2017-04-30T07:08:52.633Z,55616
2017-04-30T07:10:05.173Z,53344
2017-04-30T07:11:17.392Z,52128
2017-04-30T07:12:29.931Z,53632
2017-04-30T07:13:42.475Z,51808
2017-04-30T07:14:54.705Z,56480
2017-04-30T07:16:07.228Z,58592
2017-04-30T07:17:19.449Z,56288
2017-04-30T07:18:31.695Z,58368
2017-04-30T07:19:43.937Z,61952
2017-04-30T07:20:56.490Z,60320
2017-04-30T07:22:09.034Z,59008
2017-04-30T07:23:21.618Z,57248
2017-04-30T07:24:34.172Z,58432
2017-04-30T07:25:46.727Z,56608
2017-04-30T07:26:59.238Z,55360
2017-04-30T07:28:11.789Z,55712
2017-04-30T07:29:24.051Z,56032
2017-04-30T07:30:36.343Z,58048
2017-04-30T07:31:48.940Z,57792
2017-04-30T07:33:01.497Z,58496
2017-04-30T07:34:13.485Z,59200
2017-04-30T07:35:25.413Z,56160
2017-04-30T07:36:37.982Z,55808
2017-04-30T07:37:50.551Z,58688
2017-04-30T07:39:03.078Z,60256
2017-04-30T07:40:15.628Z,62304
2017-04-30T07:41:27.870Z,67424
2017-04-30T07:42:39.811Z,67200
2017-04-30T07:43:52.366Z,61760
2017-04-30T07:45:04.602Z,61408
2017-04-30T07:46:17.147Z,61888
2017-04-30T07:47:29.045Z,65088
2017-04-30T07:48:41.570Z,69376
2017-04-30T07:49:54.115Z,69440
2017-04-30T07:51:06.662Z,67232
2017-04-30T07:52:19.221Z,67072
2017-04-30T07:53:31.774Z,69792
2017-04-30T07:54:44.305Z,71584
2017-04-30T07:55:56.540Z,75744
2017-04-30T07:57:09.066Z,77568
2017-04-30T07:58:21.608Z,77376
2017-04-30T07:59:34.387Z,75936
2017-04-30T08:00:46.949Z,73152
2017-04-30T08:01:59.174Z,69696
2017-04-30T08:03:11.722Z,68864
2017-04-30T08:04:24.286Z,70240
2017-04-30T08:05:36.537Z,67456
2017-04-30T08:06:49.075Z,66176
2017-04-30T08:08:01.604Z,60800
2017-04-30T08:09:14.151Z,24448
2017-04-30T08:10:26.719Z,6620
2017-04-30T08:11:38.664Z,6616
2017-04-30T08:12:51.187Z,6696
2017-04-30T08:14:03.747Z,6716
2017-04-30T08:15:15.993Z,6824
2017-04-30T08:16:28.267Z,6764
2017-04-30T08:17:40.810Z,6888
2017-04-30T08:18:53.381Z,6820
2017-04-30T08:20:05.938Z,6832
2017-04-30T08:21:18.197Z,7064
2017-04-30T08:22:30.730Z,6980
2017-04-30T08:23:43.277Z,7572
2017-04-30T08:24:55.872Z,9216
2017-04-30T08:26:08.413Z,9808
2017-04-30T08:27:20.937Z,9836
2017-04-30T08:28:33.500Z,9356
2017-04-30T08:29:45.756Z,9652
2017-04-30T08:30:57.993Z,8644
2017-04-30T08:32:10.548Z,8192
2017-04-30T08:33:22.794Z,8328
2017-04-30T08:34:35.340Z,8368
2017-04-30T08:35:47.874Z,13620
2017-04-30T08:37:00.405Z,17164
2017-04-30T08:38:12.948Z,19296
2017-04-30T08:39:25.187Z,17000
2017-04-30T08:40:37.419Z,16820
2017-04-30T08:41:49.961Z,18304
2017-04-30T08:43:02.203Z,20064
2017-04-30T08:44:14.727Z,21184
2017-04-30T08:45:27.274Z,21472
2017-04-30T08:46:39.816Z,20608
2017-04-30T08:47:52.343Z,18272
2017-04-30T08:49:04.918Z,14744
2017-04-30T08:50:16.875Z,13932
2017-04-30T08:51:29.108Z,15344
2017-04-30T08:52:41.649Z,16888
2017-04-30T08:53:54.169Z,16900
2017-04-30T08:55:06.116Z,14616
2017-04-30T08:56:18.368Z,12748
2017-04-30T08:57:30.912Z,10632
2017-04-30T08:58:43.428Z,10188
2017-04-30T08:59:55.955Z,10900
2017-04-30T09:01:08.513Z,10840
2017-04-30T09:02:21.042Z,9908
2017-04-30T09:03:33.605Z,10760
2017-04-30T09:04:46.150Z,11376
2017-04-30T09:05:58.663Z,12560
2017-04-30T09:07:11.203Z,13144
2017-04-30T09:08:23.447Z,13720
2017-04-30T09:09:35.984Z,15720
2017-04-30T09:10:48.517Z,14548
2017-04-30T09:12:01.061Z,16736
2017-04-30T09:13:13.604Z,17232
2017-04-30T09:14:26.143Z,13640
2017-04-30T09:15:38.380Z,10076
2017-04-30T09:16:50.917Z,10832
2017-04-30T09:18:03.138Z,12560
2017-04-30T09:19:15.386Z,11468
2017-04-30T09:20:27.904Z,12968
2017-04-30T09:21:40.151Z,12308
2017-04-30T09:22:52.678Z,11712
2017-04-30T09:24:04.910Z,11812
2017-04-30T09:25:16.868Z,13268
2017-04-30T09:26:29.089Z,13940
2017-04-30T09:27:41.330Z,15096
2017-04-30T09:28:53.854Z,17920
2017-04-30T09:30:06.414Z,16228
2017-04-30T09:31:18.986Z,12920
2017-04-30T09:32:31.515Z,12028
2017-04-30T09:33:44.042Z,13340
2017-04-30T09:34:56.598Z,11924
2017-04-30T09:36:09.131Z,9660
2017-04-30T09:37:21.673Z,8436
2017-04-30T09:38:34.186Z,8732
2017-04-30T09:39:46.735Z,11064
2017-04-30T09:40:58.960Z,14740
2017-04-30T09:42:11.182Z,13884
2017-04-30T09:43:23.723Z,11104
2017-04-30T09:44:36.278Z,9540
2017-04-30T09:45:48.811Z,9344
2017-04-30T09:47:01.340Z,8900
2017-04-30T09:48:13.561Z,8776
2017-04-30T09:49:26.102Z,9932
2017-04-30T09:50:38.631Z,10956
2017-04-30T09:51:50.903Z,20960
2017-04-30T09:53:03.465Z,52064
2017-04-30T09:54:15.695Z,76384
2017-04-30T09:55:27.940Z,74976
2017-04-30T09:56:40.500Z,48448
2017-04-30T09:57:52.732Z,31328
2017-04-30T09:59:05.551Z,62368
2017-04-30T10:00:17.776Z,64800
2017-04-30T10:01:30.319Z,20544
2017-04-30T10:02:42.842Z,27776
2017-04-30T10:03:55.386Z,32736
2017-04-30T10:05:07.629Z,54816
2017-04-30T10:06:19.567Z,77600
2017-04-30T10:07:31.824Z,71552
2017-04-30T10:08:44.072Z,40896
2017-04-30T10:09:56.620Z,14844
2017-04-30T10:11:09.158Z,21152
2017-04-30T10:12:21.408Z,54688
2017-04-30T10:13:33.968Z,87872
2017-04-30T10:14:46.521Z,87488
2017-04-30T10:15:59.046Z,86144
2017-04-30T10:17:11.591Z,83072
2017-04-30T10:18:23.551Z,81088
2017-04-30T10:19:35.850Z,81280
2017-04-30T10:20:48.632Z,83392
2017-04-30T10:22:01.200Z,81568
2017-04-30T10:23:13.745Z,83264
2017-04-30T10:24:26.009Z,22432
2017-04-30T10:25:38.563Z,88352
2017-04-30T10:26:51.084Z,85024
2017-04-30T10:28:03.033Z,13808
2017-04-30T10:29:14.993Z,16444
2017-04-30T10:30:27.620Z,17400
2017-04-30T10:31:40.142Z,17908
2017-04-30T10:32:52.391Z,46528
2017-04-30T10:34:04.908Z,55904
2017-04-30T10:35:16.851Z,18528
2017-04-30T10:36:29.373Z,89280
2017-04-30T10:37:41.924Z,87360
2017-04-30T10:38:54.164Z,86656
2017-04-30T10:40:06.438Z,42112
2017-04-30T10:41:18.684Z,46656
2017-04-30T10:42:31.257Z,86624
2017-04-30T10:43:43.525Z,86112
2017-04-30T10:44:56.091Z,86592
2017-04-30T10:46:08.685Z,84384
2017-04-30T10:47:20.916Z,82144
2017-04-30T10:48:33.462Z,82592
2017-04-30T10:49:46.032Z,22400
2017-04-30T10:50:58.278Z,88608
2017-04-30T10:52:10.524Z,87584
2017-04-30T10:53:22.765Z,88608
2017-04-30T10:54:35.311Z,90880
2017-04-30T10:55:47.553Z,92672
2017-04-30T10:56:59.778Z,88000
2017-04-30T10:58:12.305Z,87136
2017-04-30T10:59:24.615Z,86304
2017-04-30T11:00:36.908Z,87936
2017-04-30T11:01:49.437Z,89216
2017-04-30T11:03:01.985Z,90368
2017-04-30T11:04:14.254Z,94208
2017-04-30T11:05:26.842Z,95008
2017-04-30T11:06:39.417Z,94112
2017-04-30T11:07:51.968Z,91424
2017-04-30T11:09:04.558Z,83872
2017-04-30T11:10:16.508Z,79168
2017-04-30T11:11:29.057Z,80928
2017-04-30T11:12:41.622Z,80704
2017-04-30T11:13:54.174Z,79808
2017-04-30T11:15:06.745Z,79008
2017-04-30T11:16:19.008Z,78304
2017-04-30T11:17:31.284Z,83008
2017-04-30T11:18:43.846Z,84384
2017-04-30T11:19:56.401Z,82496
2017-04-30T11:21:08.997Z,79392
2017-04-30T11:22:21.246Z,78528
2017-04-30T11:23:33.815Z,82240
2017-04-30T11:24:46.060Z,27680
2017-04-30T11:25:58.608Z,56640
2017-04-30T11:27:10.855Z,22816
2017-04-30T11:28:23.423Z,28608
2017-04-30T11:29:35.996Z,89152
2017-04-30T11:30:48.563Z,82880
2017-04-30T11:32:01.131Z,82368
2017-04-30T11:33:13.659Z,82752
2017-04-30T11:34:25.601Z,82720
2017-04-30T11:35:38.151Z,80224
2017-04-30T11:36:50.722Z,79712
2017-04-30T11:38:02.964Z,82848
2017-04-30T11:39:15.513Z,54240
2017-04-30T11:40:28.085Z,84320
2017-04-30T11:41:40.698Z,74656
2017-04-30T11:42:53.273Z,36704
2017-04-30T11:44:05.797Z,73952
2017-04-30T11:45:18.060Z,74176
2017-04-30T11:46:30.285Z,55776
2017-04-30T11:47:42.852Z,78336
2017-04-30T11:48:55.399Z,63968
2017-04-30T11:50:07.366Z,79392
2017-04-30T11:51:19.619Z,75136
2017-04-30T11:52:32.140Z,79264
2017-04-30T11:53:44.710Z,48416
2017-04-30T11:54:56.661Z,74688
2017-04-30T11:56:09.220Z,73920
2017-04-30T11:57:21.769Z,78240
2017-04-30T11:58:33.745Z,41984
2017-04-30T11:59:46.319Z,74560
2017-04-30T12:00:58.866Z,68896
2017-04-30T12:02:11.416Z,67904
2017-04-30T12:03:23.978Z,69088
2017-04-30T12:04:36.524Z,69632
2017-04-30T12:05:49.046Z,32096
2017-04-30T12:07:01.598Z,70688
2017-04-30T12:08:13.565Z,70656
2017-04-30T12:09:25.886Z,70560
2017-04-30T12:10:38.446Z,72704
2017-04-30T12:11:51.020Z,76064
2017-04-30T12:13:03.591Z,63040
2017-04-30T12:14:16.134Z,69984
2017-04-30T12:15:28.388Z,66336
2017-04-30T12:16:40.640Z,66880
2017-04-30T12:17:53.212Z,72192
2017-04-30T12:19:05.796Z,70496
2017-04-30T12:20:18.367Z,70912
2017-04-30T12:21:30.916Z,47104
2017-04-30T12:22:43.163Z,11476
2017-04-30T12:23:55.701Z,25344
2017-04-30T12:25:08.260Z,61280
2017-04-30T12:26:20.568Z,63168
2017-04-30T12:27:33.099Z,63296
2017-04-30T12:28:45.671Z,65504
2017-04-30T12:29:58.216Z,68736
2017-04-30T12:31:10.780Z,67296
2017-04-30T12:32:23.006Z,67776
2017-04-30T12:33:35.531Z,58656
2017-04-30T12:34:48.097Z,10360
2017-04-30T12:36:00.646Z,22240
2017-04-30T12:37:12.918Z,70560
2017-04-30T12:38:25.464Z,65344
2017-04-30T12:39:38.033Z,64224
2017-04-30T12:40:50.301Z,68288
2017-04-30T12:42:02.547Z,69888
2017-04-30T12:43:15.111Z,66144
2017-04-30T12:44:27.667Z,65696
2017-04-30T12:45:40.210Z,65664
2017-04-30T12:46:52.760Z,64896
2017-04-30T12:48:05.330Z,62560
2017-04-30T12:49:17.577Z,64544
2017-04-30T12:50:30.143Z,66944
2017-04-30T12:51:42.689Z,64928
2017-04-30T12:52:55.236Z,66912
2017-04-30T12:54:07.780Z,68992
2017-04-30T12:55:19.727Z,67936
2017-04-30T12:56:32.272Z,65728
2017-04-30T12:57:44.511Z,56320
2017-04-30T12:58:57.094Z,51648
2017-04-30T13:00:09.336Z,64480
2017-04-30T13:01:21.887Z,65280
2017-04-30T13:02:34.158Z,65920
2017-04-30T13:03:46.430Z,63456
2017-04-30T13:04:58.970Z,63264
2017-04-30T13:06:11.206Z,63328
2017-04-30T13:07:23.464Z,61792
2017-04-30T13:08:36.036Z,60320
2017-04-30T13:09:48.577Z,59872
2017-04-30T13:11:01.156Z,61856
2017-04-30T13:12:13.699Z,58880
2017-04-30T13:13:26.273Z,58368
2017-04-30T13:14:38.829Z,62464
2017-04-30T13:15:51.375Z,60640
2017-04-30T13:17:03.902Z,59616
2017-04-30T13:18:16.141Z,59008
2017-04-30T13:19:28.688Z,61568
2017-04-30T13:20:41.266Z,61664
2017-04-30T13:21:53.816Z,62624
2017-04-30T13:23:06.358Z,42144
2017-04-30T13:24:18.621Z,7040
2017-04-30T13:25:30.895Z,5968
2017-04-30T13:26:43.148Z,5976
2017-04-30T13:27:55.697Z,6868
2017-04-30T13:29:07.948Z,20096
2017-04-30T13:30:20.511Z,39936
2017-04-30T13:31:33.058Z,54432
2017-04-30T13:32:45.632Z,60480
2017-04-30T13:33:57.896Z,61792
2017-04-30T13:35:10.437Z,60864
2017-04-30T13:36:22.988Z,59744
2017-04-30T13:37:35.532Z,59232
2017-04-30T13:38:47.773Z,59136
2017-04-30T13:40:00.343Z,58720
2017-04-30T13:41:12.592Z,56736
2017-04-30T13:42:24.867Z,55680
2017-04-30T13:43:37.409Z,55936
2017-04-30T13:44:49.938Z,54848
2017-04-30T13:46:02.480Z,53600
2017-04-30T13:47:14.430Z,51616
2017-04-30T13:48:26.989Z,54144
2017-04-30T13:49:39.218Z,53984
2017-04-30T13:50:51.760Z,53728
2017-04-30T13:52:04.278Z,53472
2017-04-30T13:53:15.630Z,54368
2017-04-30T13:54:28.199Z,54720
2017-04-30T13:55:40.775Z,54272
2017-04-30T13:56:53.349Z,54784
2017-04-30T13:58:05.907Z,55072
2017-04-30T13:59:18.438Z,53024
2017-04-30T14:00:31.024Z,51040
2017-04-30T14:01:43.604Z,51072
2017-04-30T14:02:56.177Z,52384
2017-04-30T14:04:08.461Z,48864
2017-04-30T14:05:20.735Z,48704
2017-04-30T14:06:33.266Z,48544
2017-04-30T14:07:45.808Z,43552
2017-04-30T14:08:58.355Z,34496
2017-04-30T14:10:10.898Z,27680
2017-04-30T14:11:23.440Z,20928
2017-04-30T14:12:35.997Z,14020
2017-04-30T14:13:48.563Z,9348
2017-04-30T14:15:01.124Z,7544
2017-04-30T14:16:13.398Z,7452
2017-04-30T14:17:25.951Z,10728
2017-04-30T14:18:38.499Z,13508
2017-04-30T14:19:51.334Z,14060
2017-04-30T14:21:03.885Z,15324
2017-04-30T14:22:15.807Z,9464
2017-04-30T14:23:28.354Z,5104
2017-04-30T14:24:40.874Z,4996
2017-04-30T14:25:53.103Z,5144
2017-04-30T14:27:05.670Z,6036
2017-04-30T14:28:17.891Z,5620
2017-04-30T14:29:30.462Z,5088
2017-04-30T14:30:42.996Z,5056
2017-04-30T14:31:55.571Z,5076
2017-04-30T14:33:08.120Z,5072
2017-04-30T14:34:20.395Z,5136
2017-04-30T14:35:32.962Z,5216
2017-04-30T14:36:45.515Z,5244
2017-04-30T14:37:57.754Z,5300
2017-04-30T14:39:10.005Z,5352
2017-04-30T14:40:22.564Z,5336
2017-04-30T14:41:35.108Z,5308
2017-04-30T14:42:47.641Z,5260
2017-04-30T14:44:00.203Z,5204
2017-04-30T14:45:12.756Z,5152
2017-04-30T14:46:24.980Z,4996
2017-04-30T14:47:37.541Z,4972
2017-04-30T14:48:50.110Z,5024
2017-04-30T14:50:02.642Z,4980
2017-04-30T14:51:14.867Z,4928
2017-04-30T14:52:27.408Z,4912
2017-04-30T14:53:39.960Z,4888
2017-04-30T14:54:52.564Z,4928
2017-04-30T14:56:05.085Z,4948
2017-04-30T14:57:17.635Z,4952
2017-04-30T14:58:30.163Z,5012
2017-04-30T14:59:42.686Z,5048
2017-04-30T15:00:55.219Z,4996
2017-04-30T15:02:07.746Z,4924
2017-04-30T15:03:19.968Z,4876
2017-04-30T15:04:32.515Z,4912
2017-04-30T15:05:45.033Z,4896
2017-04-30T15:06:56.987Z,4900
2017-04-30T15:08:09.505Z,4796
2017-04-30T15:09:21.775Z,4768
2017-04-30T15:10:34.323Z,4620
2017-04-30T15:11:46.547Z,4604
2017-04-30T15:12:58.803Z,4628
2017-04-30T15:14:11.584Z,4728
2017-04-30T15:15:23.808Z,4756
2017-04-30T15:16:36.365Z,4812
2017-04-30T15:17:48.598Z,4820
2017-04-30T15:19:01.158Z,4764
2017-04-30T15:20:13.711Z,4680
2017-04-30T15:21:25.634Z,4576
2017-04-30T15:22:37.878Z,4520
2017-04-30T15:23:50.402Z,4504
2017-04-30T15:25:02.647Z,4536
2017-04-30T15:26:14.873Z,4500
2017-04-30T15:27:27.420Z,4532
2017-04-30T15:28:39.660Z,4596
2017-04-30T15:29:52.206Z,4644
2017-04-30T15:31:04.755Z,4688
2017-04-30T15:32:16.694Z,4656
2017-04-30T15:33:29.224Z,4520
2017-04-30T15:34:41.804Z,4484
2017-04-30T15:35:54.314Z,4628
2017-04-30T15:37:06.874Z,4652
2017-04-30T15:38:19.100Z,4632
2017-04-30T15:39:31.324Z,4592
2017-04-30T15:40:43.862Z,4568
2017-04-30T15:41:56.409Z,4556
2017-04-30T15:43:08.934Z,4492
2017-04-30T15:44:21.472Z,4440
2017-04-30T15:45:34.029Z,4452
2017-04-30T15:46:46.563Z,4520
2017-04-30T15:47:58.794Z,4508
2017-04-30T15:49:11.318Z,4448
2017-04-30T15:50:23.851Z,4404
2017-04-30T15:51:36.434Z,4308
2017-04-30T15:52:48.975Z,4320
2017-04-30T15:54:01.501Z,4392
2017-04-30T15:55:13.791Z,4456
2017-04-30T15:56:26.321Z,4488
2017-04-30T15:57:38.861Z,4444
2017-04-30T15:58:51.411Z,4376
2017-04-30T16:00:03.952Z,4160
2017-04-30T16:01:15.871Z,4256
2017-04-30T16:02:28.395Z,4320
2017-04-30T16:03:40.942Z,4352
2017-04-30T16:04:53.159Z,4356
2017-04-30T16:06:05.677Z,4344
2017-04-30T16:07:17.905Z,4344
2017-04-30T16:08:30.752Z,4312
2017-04-30T16:09:43.293Z,4352